Vidal, California
Current Conditions -  °F | °C
As of 1:35 AM on Thursday 27 Nov 2014 (Local Time) from KHII Reporting Station
Clear Clear  
Wind Chill: 57°   Ceiling: Unl
Heat Index: 57°   Visibility: 10mi
Dew Point: 19°   Wind: 0mph
Humidity: 23%   Direction: NA
Pressure: 30.21"   Gusts: NA
Location:  34.12°N, 114.51°W
Report Text: KHII 270935Z AUTO 00000KT 10SM CLR 14/M07 A3021 RMK AO2
Loading
Personal Weather Stations






























Interactive Weather Map New forecast layout! Learn more

10-Day Weather Forecast

Advertisements
Track Severe Weather on mobile